Terminal Aerodrome Forecast
Issued by NWS Sioux Falls, SD

Home | Current Version | Previous Version | Text Only | Print | Product List | Glossary Off
Versions: 1 2 3 4 5 6 7 8 9 10 11 12 13 14 15 16 17 18 19 20 21 22 23 24

000
FTUS43 KFSD 222300
TAFSUX
TAF
KSUX 222329Z 2300/2324 06005KT P6SM SCT030 BKN200
     FM230800 09008KT P6SM SCT015 OVC040 PROB30 2309/2312 3SM TSRA
      BR SCT006 BKN015CB
     FM231200 10010KT 6SM BR BKN008
     FM231500 13010G16KT P6SM SCT015
     FM231800 15013G19KT P6SM SCT020=

USA.gov is the U.S. government's official web portal to all federal, state and local government web resources and services.